Time;durP1;ratioP1;P1;durP2;ratioP2;P2;SDS_P1;SDS_P2;PMS_P1;PMS_P2;Temp;Humidity;BMP_temperature;BMP_pressure;BME280_temperature;BME280_humidity;BME280_pressure;Samples;Min_cycle;Max_cycle;Signal;HPM_P1;HPM_P2
2023/03/02 00:01:35;;;;;;;12.63;8.15;;;;;;;-0.04;73.88;102362.34;5049068;28;20055;-75
2023/03/02 00:04:02;;;;;;;9.57;7.95;;;;;;;-0.04;74.00;102365.78;5049860;28;20436;-75
2023/03/02 00:06:30;;;;;;;11.95;8.55;;;;;;;-0.06;74.00;102358.91;5050332;28;20393;-74
2023/03/02 00:08:59;;;;;;;11.85;7.97;;;;;;;-0.10;73.87;102362.38;5049009;28;20070;-78
2023/03/02 00:11:26;;;;;;;10.85;8.50;;;;;;;-0.08;73.85;102355.47;5052541;28;20103;-74
2023/03/02 00:13:54;;;;;;;9.93;7.97;;;;;;;-0.09;74.19;102358.94;5050173;28;20029;-78
2023/03/02 00:16:19;;;;;;;10.55;7.80;;;;;;;-0.11;73.75;102356.34;5032333;28;20033;-78
2023/03/02 00:18:45;;;;;;;10.90;8.40;;;;;;;-0.12;73.93;102358.94;5046399;28;20033;-75
2023/03/02 00:21:10;;;;;;;10.90;8.10;;;;;;;-0.13;73.58;102358.09;5030306;28;20037;-76
2023/03/02 00:23:38;;;;;;;10.98;8.02;;;;;;;-0.16;73.68;102358.13;5030365;28;20029;-75
2023/03/02 00:26:06;;;;;;;11.77;8.63;;;;;;;-0.17;74.35;102360.72;5030353;28;20056;-78
2023/03/02 00:28:32;;;;;;;12.57;8.25;;;;;;;-0.15;74.22;102353.81;5028892;28;20104;-75
2023/03/02 00:30:58;;;;;;;9.65;7.53;;;;;;;-0.19;74.10;102357.28;5028423;28;20021;-75
2023/03/02 00:33:23;;;;;;;10.40;8.35;;;;;;;-0.17;74.06;102358.13;5050038;28;20482;-75
2023/03/02 00:35:48;;;;;;;10.38;8.40;;;;;;;-0.21;74.15;102354.69;5047416;28;20436;-75
2023/03/02 00:38:14;;;;;;;14.52;8.40;;;;;;;-0.20;74.20;102359.00;5046064;28;20025;-75
2023/03/02 00:40:47;;;;;;;14.82;8.70;;;;;;;-0.17;73.88;102371.91;5048281;28;20029;-76
2023/03/02 00:43:13;;;;;;;11.15;8.20;;;;;;;-0.18;74.09;102365.03;5059731;28;20108;-75
2023/03/02 00:45:39;;;;;;;12.02;8.52;;;;;;;-0.23;74.41;102361.59;5062616;28;20111;-78
2023/03/02 00:48:04;;;;;;;9.85;7.85;;;;;;;-0.25;74.10;102358.16;5047365;28;20013;-75
2023/03/02 00:50:30;;;;;;;10.20;7.82;;;;;;;-0.23;74.54;102365.91;5044846;28;20039;-75
2023/03/02 00:52:55;;;;;;;9.15;7.65;;;;;;;-0.26;74.35;102360.75;5053747;28;20025;-75
2023/03/02 00:55:21;;;;;;;10.63;8.32;;;;;;;-0.24;74.45;102354.72;5048283;28;20587;-75
2023/03/02 00:57:53;;;;;;;12.02;7.75;;;;;;;-0.23;74.15;102356.44;5047367;28;20044;-78
2023/03/02 01:00:22;;;;;;;11.13;8.45;;;;;;;-0.21;74.41;102359.00;5047509;28;20021;-75
2023/03/02 01:02:48;;;;;;;9.88;7.97;;;;;;;-0.19;74.22;102358.13;5050572;28;20550;-78
2023/03/02 01:05:14;;;;;;;10.82;8.73;;;;;;;-0.21;74.73;102354.69;5050996;28;20052;-75
2023/03/02 01:07:39;;;;;;;10.93;8.00;;;;;;;-0.20;74.34;102350.38;5047760;28;20108;-79
2023/03/02 01:10:05;;;;;;;10.82;8.15;;;;;;;-0.21;74.12;102349.53;5037289;28;20493;-75
2023/03/02 01:12:31;;;;;;;10.65;8.02;;;;;;;-0.18;74.61;102344.31;5050041;28;20082;-75
2023/03/02 01:14:56;;;;;;;10.05;8.43;;;;;;;-0.21;74.25;102344.34;5050494;28;20036;-75
2023/03/02 01:17:24;;;;;;;10.30;8.10;;;;;;;-0.24;74.75;102341.78;5052089;28;20037;-76
2023/03/02 01:19:50;;;;;;;10.80;8.13;;;;;;;-0.28;75.08;102337.50;5052414;28;20597;-76
2023/03/02 01:22:16;;;;;;;9.70;7.97;;;;;;;-0.28;75.12;102342.66;5052675;28;20477;-76
2023/03/02 01:24:41;;;;;;;9.30;7.72;;;;;;;-0.28;74.65;102334.91;5039914;28;20046;-76
2023/03/02 01:27:07;;;;;;;10.20;7.70;;;;;;;-0.31;75.17;102332.34;5051316;28;20075;-76
2023/03/02 01:29:32;;;;;;;11.48;8.63;;;;;;;-0.33;75.15;102334.94;5053006;28;20039;-76
2023/03/02 01:31:57;;;;;;;13.35;8.48;;;;;;;-0.34;75.01;102330.63;5051060;28;20027;-76
2023/03/02 01:34:23;;;;;;;10.20;8.18;;;;;;;-0.33;75.05;102339.25;5056421;28;20032;-76
2023/03/02 01:36:48;;;;;;;10.75;8.23;;;;;;;-0.37;75.27;102328.06;5066199;28;20013;-76
2023/03/02 01:39:14;;;;;;;10.50;8.23;;;;;;;-0.38;75.68;102328.94;5051598;28;20021;-76
2023/03/02 01:41:43;;;;;;;11.48;8.70;;;;;;;-0.38;75.39;102320.31;5054216;28;20038;-76
2023/03/02 01:44:42;;;;;;;10.93;8.50;;;;;;;-0.36;75.69;102328.94;5054366;28;20024;-76
2023/03/02 01:47:13;;;;;;;11.52;8.43;;;;;;;-0.38;75.35;102320.31;5032185;28;20029;-76
2023/03/02 01:49:43;;;;;;;12.00;8.77;;;;;;;-0.40;75.66;102322.03;5047756;28;20420;-76
2023/03/02 01:52:11;;;;;;;9.65;8.25;;;;;;;-0.38;75.82;102320.31;5053036;28;20025;-78
2023/03/02 01:54:38;;;;;;;10.75;8.73;;;;;;;-0.38;75.82;102326.34;5050403;28;20025;-79
2023/03/02 01:57:05;;;;;;;11.25;8.90;;;;;;;-0.40;75.52;102317.75;5051652;28;20028;-75
2023/03/02 01:59:34;;;;;;;10.35;8.25;;;;;;;-0.39;75.87;102318.59;5052792;28;20029;-76
2023/03/02 02:02:03;;;;;;;10.63;8.50;;;;;;;-0.41;75.72;102320.31;5048265;28;20029;-76
2023/03/02 02:04:31;;;;;;;10.23;8.23;;;;;;;-0.41;76.00;102316.00;5049542;28;20037;-76
2023/03/02 02:07:05;;;;;;;10.00;7.88;;;;;;;-0.42;76.41;102318.59;5051270;28;20094;-76
2023/03/02 02:09:35;;;;;;;11.48;8.20;;;;;;;-0.45;76.13;102313.44;5049893;28;20041;-76
2023/03/02 02:12:00;;;;;;;15.10;9.02;;;;;;;-0.47;76.40;102310.84;5050205;28;20041;-76
2023/03/02 02:14:26;;;;;;;11.63;9.07;;;;;;;-0.50;76.87;102310.88;5048376;28;20102;-76
2023/03/02 02:16:51;;;;;;;11.05;9.18;;;;;;;-0.54;76.57;102313.47;5043421;28;20035;-76
2023/03/02 02:19:25;;;;;;;14.65;9.75;;;;;;;-0.55;77.20;102309.19;5048751;28;20074;-76
2023/03/02 02:21:54;;;;;;;10.50;8.73;;;;;;;-0.61;77.34;102311.78;5052138;28;20031;-79
2023/03/02 02:24:26;;;;;;;11.18;8.80;;;;;;;-0.64;77.89;102308.34;5051395;28;20044;-76
2023/03/02 02:26:53;;;;;;;;;;;;;;;-0.58;77.03;102309.19;5052921;28;20027;-76
2023/03/02 02:29:34;;;;;;;11.27;9.20;;;;;;;-0.73;78.36;102302.38;5048787;28;19951;-76
2023/03/02 02:32:11;;;;;;;11.55;8.80;;;;;;;-0.79;78.75;102303.25;5048486;28;20029;-79
2023/03/02 02:35:04;;;;;;;11.85;9.57;;;;;;;-0.87;79.37;102305.00;5044953;28;20548;-76
2023/03/02 02:37:32;;;;;;;;;;;;;;;-0.82;78.02;102302.38;5051563;28;20021;-76
2023/03/02 02:40:00;;;;;;;12.50;10.32;;;;;;;-1.02;79.75;102293.00;5050173;28;19956;-79
2023/03/02 02:42:33;;;;;;;14.80;10.90;;;;;;;-1.05;80.98;102287.84;5058676;28;20028;-76
2023/03/02 02:45:01;;;;;;;14.27;10.90;;;;;;;-1.07;81.15;102297.31;5072091;28;20008;-78
2023/03/02 02:47:27;;;;;;;13.38;11.02;;;;;;;-1.12;81.89;102277.53;5066513;28;20001;-79
2023/03/02 02:49:55;;;;;;;15.70;11.73;;;;;;;-1.13;82.71;102279.25;5050612;28;20025;-76
2023/03/02 02:52:23;;;;;;;13.60;11.40;;;;;;;-1.12;82.95;102282.69;5036197;28;20025;-76
2023/03/02 02:54:52;;;;;;;16.00;12.38;;;;;;;-1.14;83.48;102289.59;5032046;28;20389;-76
2023/03/02 02:57:19;;;;;;;15.77;12.50;;;;;;;-1.21;84.09;102282.69;5043247;28;20028;-76
2023/03/02 02:59:54;;;;;;;20.77;13.30;;;;;;;-1.21;84.56;102285.28;5046000;28;20041;-79
2023/03/02 03:02:22;;;;;;;17.55;13.82;;;;;;;-1.24;85.07;102288.72;5066844;28;20039;-76
2023/03/02 03:04:48;;;;;;;19.45;14.70;;;;;;;-1.26;85.97;102287.88;5049910;28;20477;-79
2023/03/02 03:07:24;;;;;;;20.08;15.00;;;;;;;-1.27;86.29;102287.00;5042247;28;20052;-76
2023/03/02 03:10:14;;;;;;;20.70;16.38;;;;;;;-1.28;87.00;102294.75;5032848;28;20045;-76
2023/03/02 03:12:39;;;;;;;23.00;17.10;;;;;;;-1.33;87.79;102289.59;5049014;28;20037;-76
2023/03/02 03:15:06;;;;;;;21.60;17.55;;;;;;;-1.33;88.38;102294.78;5050546;28;20393;-75
2023/03/02 03:17:31;;;;;;;22.73;18.50;;;;;;;-1.37;89.15;102282.75;5048500;28;20033;-75
2023/03/02 03:20:05;;;;;;;23.38;19.65;;;;;;;-1.36;89.94;102284.44;5049259;28;20066;-75
2023/03/02 03:22:33;;;;;;;28.13;20.50;;;;;;;-1.37;90.60;102285.31;5050028;28;20028;-75
2023/03/02 03:24:59;;;;;;;26.65;21.65;;;;;;;-1.39;90.92;102279.28;5037846;28;20034;-78
2023/03/02 03:27:24;;;;;;;25.85;21.73;;;;;;;-1.41;91.43;102275.88;5044358;28;20028;-75
2023/03/02 03:29:49;;;;;;;29.85;23.52;;;;;;;-1.41;92.53;102275.88;5050411;28;20025;-75
2023/03/02 03:32:15;;;;;;;28.95;23.88;;;;;;;-1.41;93.02;102275.88;5049649;28;20568;-75
2023/03/02 03:34:41;;;;;;;33.17;25.52;;;;;;;-1.41;93.48;102275.00;5070162;28;20114;-75
2023/03/02 03:37:08;;;;;;;31.48;26.08;;;;;;;-1.44;94.16;102270.72;5046308;28;20027;-78
2023/03/02 03:39:34;;;;;;;34.03;26.42;;;;;;;-1.44;94.63;102270.72;5045669;28;20064;-75
2023/03/02 03:42:00;;;;;;;34.95;27.20;;;;;;;-1.43;95.17;102271.56;5042270;28;20113;-75
2023/03/02 03:44:26;;;;;;;37.03;29.27;;;;;;;-1.41;96.32;102275.88;5069802;28;20024;-75
2023/03/02 03:46:54;;;;;;;36.28;29.23;;;;;;;-1.42;95.98;102274.16;5069353;28;20062;-75
2023/03/02 03:49:19;;;;;;;40.22;30.52;;;;;;;-1.41;96.08;102275.88;5070252;28;20024;-78
2023/03/02 03:51:45;;;;;;;37.35;30.50;;;;;;;-1.44;97.19;102275.00;5059856;28;20028;-75
2023/03/02 03:54:10;;;;;;;44.63;31.45;;;;;;;-1.45;96.96;102288.78;5048931;28;20032;-75
2023/03/02 03:56:38;;;;;;;29.38;12.00;;;;;;;-1.39;96.15;102284.47;5047664;28;20033;-75
2023/03/02 03:59:06;;;;;;;25.85;10.15;;;;;;;-1.38;95.41;102286.19;5049954;28;20025;-75
2023/03/02 04:01:53;;;;;;;44.85;34.28;;;;;;;-1.42;97.58;102289.63;5049588;28;20124;-75
2023/03/02 04:04:22;;;;;;;35.42;10.70;;;;;;;-1.37;96.42;102293.06;5048409;28;20038;-75
2023/03/02 04:06:48;;;;;;;44.03;34.90;;;;;;;-1.41;98.15;102293.94;5047927;28;20021;-75
2023/03/02 04:09:16;;;;;;;44.30;34.53;;;;;;;-1.41;98.62;102291.34;5063145;28;20107;-75
2023/03/02 04:11:43;;;;;;;46.60;36.55;;;;;;;-1.44;99.47;102281.03;5044274;28;20318;-78
2023/03/02 04:14:09;;;;;;;45.70;36.17;;;;;;;-1.41;99.87;102275.88;5042903;28;20045;-78
2023/03/02 04:16:36;;;;;;;52.00;38.20;;;;;;;-1.39;99.95;102284.47;5030043;28;20036;-75
2023/03/02 04:19:02;;;;;;;48.33;37.05;;;;;;;-1.35;100.00;102288.75;5029050;28;20037;-78
2023/03/02 04:21:27;;;;;;;49.10;37.33;;;;;;;-1.34;100.00;102287.88;5027048;28;20075;-75
2023/03/02 04:23:53;;;;;;;49.47;38.38;;;;;;;-1.34;100.00;102282.72;5028956;28;20029;-75
2023/03/02 04:26:19;;;;;;;50.40;38.30;;;;;;;-1.35;100.00;102283.59;5045437;28;20033;-75
2023/03/02 04:28:44;;;;;;;34.30;12.90;;;;;;;-1.30;99.78;102283.56;5048424;28;20511;-75
2023/03/02 04:31:09;;;;;;;49.78;37.33;;;;;;;-1.33;100.00;102278.41;5044929;28;20025;-75
2023/03/02 04:33:35;;;;;;;50.72;38.60;;;;;;;-1.32;100.00;102285.31;5052738;28;20024;-78
2023/03/02 04:36:00;;;;;;;28.88;12.07;;;;;;;-1.28;99.50;102272.38;5067937;28;20070;-75
2023/03/02 04:38:28;;;;;;;49.65;37.28;;;;;;;-1.28;100.00;102276.69;5046270;28;20020;-75
2023/03/02 04:40:55;;;;;;;30.15;12.57;;;;;;;-1.25;99.83;102281.84;5048570;28;20495;-75
2023/03/02 04:43:21;;;;;;;30.90;12.05;;;;;;;-1.23;99.20;102287.00;5064569;28;20061;-76
2023/03/02 04:45:46;;;;;;;47.85;37.00;;;;;;;-1.30;99.53;102274.13;5047967;28;20021;-75
2023/03/02 04:48:12;;;;;;;48.67;36.65;;;;;;;-1.28;100.00;102280.13;5037306;28;20033;-78
2023/03/02 04:50:38;;;;;;;48.08;36.83;;;;;;;-1.27;100.00;102284.44;5045653;28;20025;-75
2023/03/02 04:53:03;;;;;;;47.53;36.75;;;;;;;-1.30;100.00;102271.53;5048561;28;20126;-75
2023/03/02 04:55:28;;;;;;;31.92;12.20;;;;;;;-1.23;99.09;102284.41;5048621;28;20017;-75
2023/03/02 04:57:54;;;;;;;46.40;35.35;;;;;;;-1.27;99.88;102286.16;5035610;28;20610;-74
2023/03/02 05:00:19;;;;;;;46.17;35.35;;;;;;;-1.28;100.00;102281.84;5041966;28;20025;-78
2023/03/02 05:02:45;;;;;;;47.70;34.95;;;;;;;-1.31;99.85;102281.88;5048075;28;20025;-75
2023/03/02 05:05:21;;;;;;;45.60;34.80;;;;;;;-1.34;100.00;102277.56;5046013;28;20320;-75
2023/03/02 05:07:46;;;;;;;45.47;33.88;;;;;;;-1.35;99.99;102281.00;5048995;28;20021;-75
2023/03/02 05:10:13;;;;;;;47.67;36.30;;;;;;;-1.34;99.92;102280.16;5049010;28;20047;-78
2023/03/02 05:12:56;;;;;;;43.85;34.72;;;;;;;-1.38;100.00;102286.19;5046082;28;20120;-78
2023/03/02 05:15:24;;;;;;;44.22;35.47;;;;;;;-1.42;99.70;102289.63;5042205;28;20029;-78
2023/03/02 05:17:49;;;;;;;48.03;35.55;;;;;;;-1.45;99.74;102279.31;5048480;28;20025;-75
2023/03/02 05:20:15;;;;;;;31.05;11.77;;;;;;;-1.38;99.19;102286.19;5045690;28;20033;-78
2023/03/02 05:22:41;;;;;;;29.08;12.38;;;;;;;-1.40;98.74;102287.03;5049360;28;20078;-75
2023/03/02 05:25:06;;;;;;;49.80;38.45;;;;;;;-1.50;99.82;102291.38;5046710;28;20037;-75
2023/03/02 05:27:32;;;;;;;48.42;37.75;;;;;;;-1.53;100.00;102286.22;5049054;28;20533;-75
2023/03/02 05:29:57;;;;;;;55.20;40.55;;;;;;;-1.51;100.00;102278.47;5047389;28;20025;-77
2023/03/02 05:32:22;;;;;;;55.75;41.97;;;;;;;-1.56;100.00;102280.19;5039730;28;20025;-74
2023/03/02 05:34:48;;;;;;;56.97;42.83;;;;;;;-1.54;100.00;102279.34;5060389;28;20087;-74
2023/03/02 05:37:13;;;;;;;56.53;42.17;;;;;;;-1.60;100.00;102287.09;5047787;28;20016;-78
2023/03/02 05:39:38;;;;;;;37.95;12.52;;;;;;;-1.53;100.00;102286.22;5047574;28;20033;-78
2023/03/02 05:42:04;;;;;;;31.08;11.95;;;;;;;-1.52;100.00;102287.94;5053588;28;20039;-76
2023/03/02 05:44:30;;;;;;;60.20;43.10;;;;;;;-1.61;100.00;102277.59;5068119;28;20055;-76
2023/03/02 05:46:56;;;;;;;60.42;43.15;;;;;;;-1.62;100.00;102275.88;5054424;28;20017;-76
2023/03/02 05:49:21;;;;;;;62.67;44.53;;;;;;;-1.63;100.00;102287.06;5047179;28;20074;-76
2023/03/02 05:51:47;;;;;;;58.97;42.45;;;;;;;-1.66;100.00;102285.34;5052183;28;20087;-78
2023/03/02 05:54:12;;;;;;;63.65;44.92;;;;;;;-1.66;100.00;102285.34;5049575;28;20025;-76
2023/03/02 05:56:38;;;;;;;63.67;43.85;;;;;;;-1.68;100.00;102281.91;5046583;28;20444;-76
2023/03/02 05:59:03;;;;;;;63.20;44.42;;;;;;;-1.66;100.00;102279.31;5046925;28;20063;-76
2023/03/02 06:01:28;;;;;;;63.38;44.72;;;;;;;-1.67;100.00;102281.03;5047709;28;20420;-75
2023/03/02 06:03:54;;;;;;;64.03;45.17;;;;;;;-1.69;100.00;102285.34;5049436;28;20055;-78
2023/03/02 06:06:19;;;;;;;63.10;45.55;;;;;;;-1.72;100.00;102274.16;5044198;28;20599;-76
2023/03/02 06:08:45;;;;;;;61.28;44.00;;;;;;;-1.75;100.00;102275.03;5048739;28;20067;-78
2023/03/02 06:11:11;;;;;;;66.10;46.65;;;;;;;-1.80;100.00;102274.16;5051163;28;20312;-78
2023/03/02 06:13:36;;;;;;;68.43;47.17;;;;;;;-1.78;100.00;102274.16;5050019;28;20391;-79
2023/03/02 06:16:02;;;;;;;69.55;47.72;;;;;;;-1.81;100.00;102274.19;5050675;28;20025;-75
2023/03/02 06:18:27;;;;;;;67.93;46.05;;;;;;;-1.84;100.00;102276.75;5048794;28;20037;-78
2023/03/02 06:20:53;;;;;;;39.08;13.25;;;;;;;-1.77;100.00;102275.88;5051148;28;20029;-74
2023/03/02 06:23:18;;;;;;;69.82;47.40;;;;;;;-1.83;100.00;102281.06;5047837;28;20021;-78
2023/03/02 06:25:47;;;;;;;70.25;48.08;;;;;;;-1.82;100.00;102280.19;5032782;28;20120;-75
2023/03/02 06:28:14;;;;;;;71.80;48.67;;;;;;;-1.82;100.00;102293.94;5030223;28;20114;-75
2023/03/02 06:30:40;;;;;;;70.15;48.28;;;;;;;-1.84;100.00;102290.50;5048367;28;20032;-75
2023/03/02 06:33:05;;;;;;;70.60;48.83;;;;;;;-1.83;100.00;102291.38;5066445;28;20025;-75
2023/03/02 06:35:30;;;;;;;74.20;49.60;;;;;;;-1.82;100.00;102293.09;5050100;28;20112;-78
2023/03/02 06:37:56;;;;;;;72.57;49.85;;;;;;;-1.82;100.00;102303.41;5049787;28;20033;-77
2023/03/02 06:40:21;;;;;;;73.95;49.30;;;;;;;-1.77;100.00;102296.53;5046329;28;20028;-75
2023/03/02 06:42:47;;;;;;;71.32;48.13;;;;;;;-1.74;100.00;102301.69;5057098;28;20053;-75
2023/03/02 06:45:12;;;;;;;70.97;48.75;;;;;;;-1.74;100.00;102299.97;5050482;28;20115;-75
2023/03/02 06:47:38;;;;;;;71.13;48.00;;;;;;;-1.74;100.00;102309.41;5051858;28;20022;-75
2023/03/02 06:50:04;;;;;;;72.72;49.17;;;;;;;-1.75;100.00;102313.72;5050928;28;20112;-76
2023/03/02 06:52:30;;;;;;;72.53;47.85;;;;;;;-1.69;100.00;102299.97;5051741;28;20028;-75
2023/03/02 06:54:55;;;;;;;73.60;48.40;;;;;;;-1.66;100.00;102303.41;5051588;28;20029;-74
2023/03/02 06:57:21;;;;;;;74.18;48.83;;;;;;;-1.67;100.00;102308.56;5045451;28;20017;-78
2023/03/02 06:59:46;;;;;;;47.20;17.35;;;;;;;-1.59;100.00;102305.16;5047920;28;20082;-76
2023/03/02 07:02:12;;;;;;;49.50;17.40;;;;;;;-1.56;100.00;102300.84;5049296;28;20063;-76
2023/03/02 07:04:38;;;;;;;71.13;46.47;;;;;;;-1.54;100.00;102302.56;5050209;28;20048;-75
2023/03/02 07:07:04;;;;;;;73.60;47.42;;;;;;;-1.51;100.00;102310.28;5050370;28;20021;-78
2023/03/02 07:09:32;;;;;;;38.22;12.95;;;;;;;-1.46;100.00;102318.88;5044286;28;20040;-75
2023/03/02 07:11:58;;;;;;;70.60;45.15;;;;;;;-1.45;100.00;102310.28;5029621;28;20033;-78
2023/03/02 07:14:23;;;;;;;68.70;45.95;;;;;;;-1.43;100.00;102308.56;5049181;28;20051;-78
2023/03/02 07:16:48;;;;;;;67.82;45.78;;;;;;;-1.39;100.00;102307.69;5050384;28;20092;-74
2023/03/02 07:19:14;;;;;;;69.35;45.22;;;;;;;-1.35;100.00;102311.13;5046712;28;20428;-73
2023/03/02 07:21:40;;;;;;;44.10;16.42;;;;;;;-1.29;100.00;102314.56;5046028;28;20386;-75
2023/03/02 07:24:05;;;;;;;40.45;15.10;;;;;;;-1.24;100.00;102318.84;5048247;28;20079;-75
2023/03/02 07:26:31;;;;;;;65.95;43.72;;;;;;;-1.20;100.00;102315.41;5048169;28;20116;-78
2023/03/02 07:28:58;;;;;;;69.55;46.13;;;;;;;-1.14;100.00;102320.56;5049755;28;20017;-74
2023/03/02 07:31:24;;;;;;;66.63;44.35;;;;;;;-1.10;100.00;102323.16;5048903;28;20029;-76
2023/03/02 07:33:49;;;;;;;65.70;44.10;;;;;;;-1.05;100.00;102315.38;5063405;28;20106;-75
2023/03/02 07:36:15;;;;;;;48.45;15.25;;;;;;;-0.97;100.00;102318.81;5061141;28;20021;-75
2023/03/02 07:38:40;;;;;;;38.55;12.70;;;;;;;-0.92;100.00;102311.91;5049183;28;20021;-78
2023/03/02 07:41:09;;;;;;;65.65;43.65;;;;;;;-0.84;100.00;102320.47;5049424;28;20032;-75
2023/03/02 07:43:36;;;;;;;66.82;44.50;;;;;;;-0.79;100.00;102312.75;5046558;28;20036;-78
2023/03/02 07:46:05;;;;;;;67.18;44.85;;;;;;;-0.70;100.00;102323.91;5048882;28;20082;-75
2023/03/02 07:48:31;;;;;;;65.40;43.03;;;;;;;-0.64;100.00;102316.13;5050030;28;20029;-78
2023/03/02 07:50:59;;;;;;;66.93;44.17;;;;;;;-0.57;100.00;102313.50;5048534;28;20116;-78
2023/03/02 07:53:25;;;;;;;65.22;43.60;;;;;;;-0.48;100.00;102318.63;5049300;28;20032;-75
2023/03/02 07:55:50;;;;;;;61.42;42.90;;;;;;;-0.41;100.00;102320.31;5048331;28;20031;-75
2023/03/02 07:58:15;;;;;;;62.72;42.10;;;;;;;-0.34;100.00;102332.34;5047162;28;20108;-75
2023/03/02 08:00:41;;;;;;;64.10;42.53;;;;;;;-0.27;100.00;102328.88;5046999;28;20120;-78
2023/03/02 08:03:06;;;;;;;60.72;41.45;;;;;;;-0.19;100.00;102327.09;5048926;28;20025;-75
2023/03/02 08:05:31;;;;;;;60.95;39.00;;;;;;;-0.14;98.08;102320.16;5049314;28;20494;-75
2023/03/02 08:07:57;;;;;;;56.30;40.08;;;;;;;-0.05;98.54;102314.06;5045945;28;20092;-75
2023/03/02 08:10:22;;;;;;;55.85;38.42;;;;;;;0.06;97.50;102316.59;5047528;28;20071;-75
2023/03/02 08:12:47;;;;;;;56.42;38.47;;;;;;;0.17;96.99;102314.78;5048899;28;20100;-75
2023/03/02 08:15:13;;;;;;;55.38;37.78;;;;;;;0.25;95.97;102316.44;5044146;28;20087;-75
2023/03/02 08:17:38;;;;;;;53.78;36.72;;;;;;;0.36;94.41;102316.34;5045584;28;20091;-78
2023/03/02 08:20:04;;;;;;;52.13;36.55;;;;;;;0.44;93.73;102312.00;5045865;28;20439;-76
2023/03/02 08:22:30;;;;;;;53.08;35.50;;;;;;;0.51;93.02;102311.06;5046606;28;20024;-75
2023/03/02 08:24:55;;;;;;;50.58;35.25;;;;;;;0.61;93.75;102317.88;5048949;28;20077;-75
2023/03/02 08:27:20;;;;;;;52.53;35.30;;;;;;;0.68;92.52;102312.63;5068482;28;20194;-75
2023/03/02 08:29:46;;;;;;;50.40;34.92;;;;;;;0.73;92.07;102313.44;5067237;28;20028;-78
2023/03/02 08:32:11;;;;;;;50.05;34.35;;;;;;;0.80;90.53;102310.81;5053980;28;20035;-76
2023/03/02 08:34:36;;;;;;;47.90;34.55;;;;;;;0.89;90.23;102312.44;5057410;28;20690;-75
2023/03/02 08:37:02;;;;;;;49.08;33.70;;;;;;;1.00;90.16;102320.94;5051879;28;20016;-78
2023/03/02 08:39:29;;;;;;;47.08;33.30;;;;;;;1.06;89.72;102318.28;5047740;28;20536;-76
2023/03/02 08:41:57;;;;;;;49.45;34.03;;;;;;;1.13;88.49;102317.34;5057316;28;20536;-75
2023/03/02 08:44:23;;;;;;;48.53;32.78;;;;;;;1.24;87.72;102318.09;5058203;28;20025;-75
2023/03/02 08:46:49;;;;;;;43.97;30.98;;;;;;;1.33;86.40;102314.53;5051113;28;20027;-74
2023/03/02 08:49:16;;;;;;;46.83;31.45;;;;;;;1.36;84.50;102324.00;5042486;28;20421;-74
2023/03/02 08:51:43;;;;;;;43.97;31.63;;;;;;;1.47;85.73;102317.78;5048432;28;20652;-75
2023/03/02 08:54:09;;;;;;;44.40;30.75;;;;;;;1.61;84.68;102314.19;5061272;28;20025;-74
2023/03/02 08:56:37;;;;;;;44.65;31.02;;;;;;;1.69;83.52;102318.38;5067726;28;20024;-73
2023/03/02 08:59:05;;;;;;;42.60;28.88;;;;;;;1.81;82.46;102313.03;5053640;28;20439;-74
2023/03/02 09:01:33;;;;;;;40.65;27.83;;;;;;;1.91;81.53;102312.88;5068631;28;20021;-74
2023/03/02 09:04:00;;;;;;;41.17;27.80;;;;;;;2.02;81.46;102301.50;5063608;28;20033;-80
2023/03/02 09:06:32;;;;;;;35.00;26.30;;;;;;;2.13;79.48;102304.78;5042760;28;20108;-79
2023/03/02 09:08:57;;;;;;;38.40;25.88;;;;;;;2.20;78.68;102297.75;5063024;28;20424;-77
2023/03/02 09:11:24;;;;;;;36.33;25.42;;;;;;;2.32;78.34;102294.94;5066161;28;20036;-78
2023/03/02 09:13:49;;;;;;;36.60;25.95;;;;;;;2.49;78.72;102294.66;5056744;28;20044;-78
2023/03/02 09:16:18;;;;;;;33.50;25.95;;;;;;;2.59;76.58;102292.75;5061673;28;20090;-78
2023/03/02 09:18:43;;;;;;;34.65;24.63;;;;;;;2.69;75.61;102297.75;5061300;28;20021;-78
2023/03/02 09:21:09;;;;;;;36.17;24.65;;;;;;;2.79;75.37;102301.03;5058819;28;20075;-76
2023/03/02 09:23:35;;;;;;;32.78;23.65;;;;;;;2.90;74.86;102295.66;5047137;28;20037;-76
2023/03/02 09:26:00;;;;;;;35.00;24.45;;;;;;;2.92;74.11;102293.91;5071046;28;20028;-76
2023/03/02 09:28:26;;;;;;;30.55;24.05;;;;;;;2.99;73.55;102293.75;5055656;28;20538;-75
2023/03/02 09:30:58;;;;;;;36.30;24.27;;;;;;;3.11;73.82;102303.91;5063625;28;20029;-76
2023/03/02 09:33:23;;;;;;;31.50;22.83;;;;;;;3.12;71.94;102289.16;5053778;28;20079;-75
2023/03/02 09:35:49;;;;;;;29.63;22.17;;;;;;;3.15;71.82;102289.94;5055522;28;20029;-76
2023/03/02 09:38:17;;;;;;;35.17;25.85;;;;;;;3.19;70.75;102300.28;5054266;28;20055;-76
2023/03/02 09:40:51;;;;;;;33.03;24.52;;;;;;;3.22;70.79;102295.91;5072219;28;20025;-76
2023/03/02 09:43:31;;;;;;;33.25;26.30;;;;;;;3.30;70.02;102300.94;5060169;28;20497;-76
2023/03/02 09:45:59;;;;;;;29.02;22.45;;;;;;;3.31;69.61;102295.72;5063041;28;20032;-76
2023/03/02 09:48:36;;;;;;;28.38;21.60;;;;;;;3.44;69.64;102293.69;5051936;28;20025;-76
2023/03/02 09:51:44;;;;;;;30.85;22.67;;;;;;;3.60;69.89;102287.31;5049432;28;20056;-76
2023/03/02 09:54:12;;;;;;;29.17;21.52;;;;;;;3.71;69.13;102287.91;5055566;28;20043;-76
2023/03/02 09:56:47;;;;;;;31.35;21.33;;;;;;;3.78;67.93;102280.81;5054499;28;20024;-76
2023/03/02 09:59:35;;;;;;;28.48;20.80;;;;;;;3.95;68.73;102272.59;5059408;28;20064;-77
2023/03/02 10:02:31;;;;;;;29.35;20.35;;;;;;;4.07;67.76;102272.34;5055337;28;20063;-77
2023/03/02 10:05:01;;;;;;;29.23;21.42;;;;;;;4.20;67.25;102268.53;5047592;28;20059;-78
2023/03/02 10:07:37;;;;;;;27.67;19.75;;;;;;;4.35;66.45;102270.75;5064877;28;20119;-77
2023/03/02 10:10:08;;;;;;;23.98;18.90;;;;;;;4.44;65.13;102274.03;5051998;28;20041;-77
2023/03/02 10:12:42;;;;;;;31.75;19.45;;;;;;;4.52;64.52;102282.50;5061697;28;20055;-77
2023/03/02 10:15:27;;;;;;;26.05;19.42;;;;;;;4.58;64.45;102271.91;5055635;28;20025;-79
2023/03/02 10:18:12;;;;;;;25.20;19.23;;;;;;;4.74;63.61;102275.81;5069892;28;20070;-78
2023/03/02 10:20:55;;;;;;;24.33;17.95;;;;;;;5.09;63.47;102271.38;5070246;28;20436;-78
2023/03/02 10:23:26;;;;;;;;;;;;;;;5.95;65.70;102276.63;5055363;28;20029;-77
2023/03/02 10:26:14;;;;;;;23.88;18.98;;;;;;;6.99;56.89;102277.50;5050503;28;19917;-77
2023/03/02 10:29:22;;;;;;;24.58;18.05;;;;;;;6.77;58.12;102267.78;5061278;28;20029;-76
2023/03/02 10:31:57;;;;;;;22.27;16.50;;;;;;;6.30;56.65;102272.03;5071389;28;20550;-78
2023/03/02 10:34:26;;;;;;;22.67;15.73;;;;;;;6.07;56.10;102270.19;5050463;28;20036;-77
2023/03/02 10:36:52;;;;;;;19.83;15.60;;;;;;;6.44;54.75;102268.97;5065735;28;20032;-76
2023/03/02 10:39:17;;;;;;;28.15;15.57;;;;;;;7.20;52.68;102264.50;5059510;28;20028;-75
2023/03/02 10:41:50;;;;;;;20.02;15.52;;;;;;;7.75;51.30;102264.16;5066316;28;20557;-76
2023/03/02 10:44:23;;;;;;;20.85;14.88;;;;;;;7.75;49.80;102264.16;5062868;28;20466;-76
2023/03/02 10:46:50;;;;;;;19.88;14.75;;;;;;;7.59;50.09;102252.53;5049664;28;20363;-78
2023/03/02 10:49:30;;;;;;;19.05;14.80;;;;;;;7.41;51.29;102254.13;5049789;28;20028;-78
2023/03/02 10:51:59;;;;;;;20.88;15.10;;;;;;;7.18;51.64;102252.34;5065019;28;20045;-76
2023/03/02 10:54:27;;;;;;;18.02;14.73;;;;;;;6.99;51.20;102252.19;5047763;28;20033;-77
2023/03/02 10:56:55;;;;;;;18.63;14.50;;;;;;;6.84;51.89;102266.69;5048502;28;20028;-78
2023/03/02 10:59:23;;;;;;;21.20;15.32;;;;;;;6.61;52.08;102261.41;5053009;28;20108;-76
2023/03/02 11:02:11;;;;;;;21.15;15.30;;;;;;;6.47;53.79;102253.19;5054893;28;20550;-76
2023/03/02 11:04:37;;;;;;;18.95;15.00;;;;;;;6.26;52.68;102254.75;5049868;28;20552;-76
2023/03/02 11:07:14;;;;;;;19.05;15.55;;;;;;;6.18;53.61;102251.53;5064983;28;20095;-76
2023/03/02 11:09:40;;;;;;;21.25;15.38;;;;;;;6.18;53.51;102246.31;5049792;28;20049;-76
2023/03/02 11:12:14;;;;;;;21.75;16.35;;;;;;;6.24;55.27;102243.50;5061474;28;20400;-76
2023/03/02 11:14:39;;;;;;;22.55;15.77;;;;;;;6.21;54.89;102246.22;5064702;28;20029;-78
2023/03/02 11:17:28;;;;;;;22.25;15.20;;;;;;;6.35;55.91;102237.88;5055636;28;20020;-76